createdAt,value
2022-10-07T00:00:17.578Z,99.34
2022-10-07T00:01:17.659Z,99.14
2022-10-07T00:02:17.593Z,99.14
2022-10-07T00:03:17.560Z,98.78
2022-10-07T00:04:17.552Z,98.93
2022-10-07T00:05:17.540Z,98.00
2022-10-07T00:06:17.584Z,98.15
2022-10-07T00:07:17.520Z,98.25
2022-10-07T00:08:17.519Z,98.09
2022-10-07T00:09:17.504Z,97.99
2022-10-07T00:10:17.503Z,98.40
2022-10-07T00:11:17.529Z,98.30
2022-10-07T00:12:17.489Z,98.30
2022-10-07T00:13:17.483Z,98.19
2022-10-07T00:14:17.487Z,98.61
2022-10-07T00:15:17.468Z,99.13
2022-10-07T00:16:17.619Z,99.02
2022-10-07T00:17:17.444Z,99.02
2022-10-07T00:18:17.436Z,99.13
2022-10-07T00:19:17.441Z,99.23
2022-10-07T00:20:17.435Z,98.30
2022-10-07T00:21:17.440Z,99.02
2022-10-07T00:22:17.416Z,99.13
2022-10-07T00:23:17.395Z,98.40
2022-10-07T00:24:18.398Z,98.61
2022-10-07T00:25:17.395Z,98.50
2022-10-07T00:26:17.404Z,99.27
2022-10-07T00:27:17.369Z,98.82
2022-10-07T00:28:17.455Z,99.23
2022-10-07T00:29:17.357Z,97.72
2022-10-07T00:30:17.358Z,98.55
2022-10-07T00:31:17.490Z,98.24
2022-10-07T00:32:17.329Z,98.09
2022-10-07T00:33:17.327Z,98.13
2022-10-07T00:34:17.315Z,98.50
2022-10-07T00:35:17.272Z,98.50
2022-10-07T00:36:17.337Z,98.09
2022-10-07T00:37:17.258Z,98.19
2022-10-07T00:38:17.198Z,97.99
2022-10-07T00:39:17.184Z,98.92
2022-10-07T00:40:17.178Z,99.02
2022-10-07T00:41:17.285Z,98.50
2022-10-07T00:42:17.195Z,99.43
2022-10-07T00:43:17.154Z,99.33
2022-10-07T00:44:17.151Z,99.29
2022-10-07T00:45:17.140Z,99.43
2022-10-07T00:46:17.224Z,99.29
2022-10-07T00:47:17.191Z,99.91
2022-10-07T00:48:17.127Z,98.87
2022-10-07T00:49:17.109Z,99.70
2022-10-07T00:50:17.111Z,98.87
2022-10-07T00:51:17.093Z,99.74
2022-10-07T00:52:17.109Z,99.60
2022-10-07T00:53:17.079Z,99.64
2022-10-07T00:54:17.070Z,99.74
2022-10-07T00:55:17.063Z,99.85
2022-10-07T00:56:17.057Z,99.99
2022-10-07T00:57:17.075Z,99.99
2022-10-07T00:58:17.040Z,99.99
2022-10-07T00:59:17.039Z,99.99
2022-10-07T01:00:17.019Z,99.99
2022-10-07T01:01:17.078Z,99.99
2022-10-07T01:02:17.074Z,99.99
2022-10-07T01:03:17.007Z,99.99
2022-10-07T01:04:16.996Z,99.99
2022-10-07T01:05:16.997Z,99.99
2022-10-07T01:06:16.981Z,99.99
2022-10-07T01:07:17.003Z,99.99
2022-10-07T01:08:16.963Z,99.99
2022-10-07T01:09:16.958Z,99.99
2022-10-07T01:10:16.950Z,99.99
2022-10-07T01:11:16.945Z,99.99
2022-10-07T01:12:16.959Z,99.99
2022-10-07T01:13:16.941Z,99.99
2022-10-07T01:14:16.914Z,99.99
2022-10-07T01:15:16.904Z,99.99
2022-10-07T01:16:16.957Z,99.99
2022-10-07T01:17:16.929Z,99.99
2022-10-07T01:18:16.951Z,99.99
2022-10-07T01:19:16.902Z,99.99
2022-10-07T01:20:16.873Z,99.99
2022-10-07T01:21:16.887Z,99.99
2022-10-07T01:22:16.882Z,99.99
2022-10-07T01:23:16.856Z,99.99
2022-10-07T01:24:16.845Z,99.99
2022-10-07T01:25:16.832Z,99.99
2022-10-07T01:26:16.825Z,99.99
2022-10-07T01:27:16.850Z,99.99
2022-10-07T01:28:16.858Z,99.99
2022-10-07T01:29:16.811Z,99.99
2022-10-07T01:30:16.835Z,99.99
2022-10-07T01:31:16.884Z,99.99
2022-10-07T01:32:16.813Z,99.99
2022-10-07T01:33:16.774Z,99.99
2022-10-07T01:34:16.771Z,99.99
2022-10-07T01:35:16.757Z,99.99
2022-10-07T01:36:16.749Z,99.99
2022-10-07T01:37:16.786Z,99.99
2022-10-07T01:38:16.739Z,99.99
2022-10-07T01:39:16.728Z,99.99
2022-10-07T01:40:16.727Z,99.99
2022-10-07T01:41:16.712Z,99.99
2022-10-07T01:42:16.699Z,99.99
2022-10-07T01:43:16.728Z,99.99
2022-10-07T01:44:16.691Z,99.99
2022-10-07T01:45:16.685Z,99.99
2022-10-07T01:46:16.719Z,99.99
2022-10-07T01:47:16.692Z,99.99
2022-10-07T01:48:16.658Z,99.99
2022-10-07T01:49:16.659Z,99.99
2022-10-07T01:50:16.660Z,99.99
2022-10-07T01:51:16.637Z,99.99
2022-10-07T01:52:16.674Z,99.99
2022-10-07T01:53:16.618Z,99.99
2022-10-07T01:54:16.610Z,99.99
2022-10-07T01:55:16.610Z,99.99
2022-10-07T01:56:16.606Z,99.99
2022-10-07T01:57:16.645Z,99.99
2022-10-07T01:58:16.578Z,99.99
2022-10-07T01:59:16.581Z,99.99
2022-10-07T02:00:16.573Z,99.99
2022-10-07T02:01:16.613Z,99.99
2022-10-07T02:02:16.580Z,99.99
2022-10-07T02:03:16.589Z,99.99
2022-10-07T02:04:16.534Z,99.99
2022-10-07T02:05:16.535Z,99.99
2022-10-07T02:06:16.518Z,99.99
2022-10-07T02:07:16.556Z,99.99
2022-10-07T02:08:16.515Z,99.99
2022-10-07T02:09:16.511Z,99.99
2022-10-07T02:10:16.492Z,99.99
2022-10-07T02:11:16.479Z,99.99
2022-10-07T02:12:16.471Z,99.99
2022-10-07T02:13:16.497Z,99.99
2022-10-07T02:14:16.462Z,99.99
2022-10-07T02:15:16.458Z,99.99
2022-10-07T02:16:16.498Z,99.99
2022-10-07T02:17:16.466Z,99.99
2022-10-07T02:18:16.454Z,99.99
2022-10-07T02:19:16.428Z,99.99
2022-10-07T02:20:16.408Z,99.99
2022-10-07T02:21:16.401Z,99.99
2022-10-07T02:22:16.405Z,99.99
2022-10-07T02:23:16.422Z,99.99
2022-10-07T02:24:16.395Z,99.99
2022-10-07T02:25:16.377Z,99.99
2022-10-07T02:26:16.365Z,99.99
2022-10-07T02:27:16.386Z,99.99
2022-10-07T02:28:16.389Z,99.99
2022-10-07T02:29:16.353Z,99.99
2022-10-07T02:30:16.337Z,99.99
2022-10-07T02:31:16.373Z,99.99
2022-10-07T02:32:16.352Z,99.99
2022-10-07T02:33:16.319Z,99.99
2022-10-07T02:34:19.718Z,99.99
2022-10-07T02:35:17.298Z,99.99
2022-10-07T02:36:16.307Z,99.99
2022-10-07T02:37:16.310Z,99.99
2022-10-07T02:38:16.278Z,99.99
2022-10-07T02:39:16.268Z,99.99
2022-10-07T02:40:16.263Z,99.99
2022-10-07T02:41:16.260Z,99.99
2022-10-07T02:42:16.274Z,99.99
2022-10-07T02:43:16.249Z,99.99
2022-10-07T02:44:16.233Z,99.99
2022-10-07T02:45:16.232Z,99.99
2022-10-07T02:46:16.265Z,99.99
2022-10-07T02:47:17.241Z,99.99
2022-10-07T02:48:16.204Z,99.99
2022-10-07T02:49:16.190Z,99.99
2022-10-07T02:50:16.185Z,99.99
2022-10-07T02:51:20.639Z,99.99
2022-10-07T02:52:18.207Z,99.99
2022-10-07T02:53:16.162Z,99.99
2022-10-07T02:54:16.167Z,99.99
2022-10-07T02:55:16.145Z,99.99
2022-10-07T02:56:16.144Z,99.99
2022-10-07T02:57:16.138Z,99.99
2022-10-07T02:58:16.153Z,99.99
2022-10-07T02:59:16.119Z,99.99
2022-10-07T03:00:16.116Z,99.99
2022-10-07T03:01:16.134Z,99.99
2022-10-07T03:02:16.099Z,99.99
2022-10-07T03:03:16.184Z,99.99
2022-10-07T03:04:16.105Z,99.99
2022-10-07T03:05:16.082Z,99.99
2022-10-07T03:06:16.083Z,99.99
2022-10-07T03:07:16.057Z,99.99
2022-10-07T03:08:16.084Z,99.99
2022-10-07T03:09:16.048Z,99.99
2022-10-07T03:10:16.037Z,99.99
2022-10-07T03:11:16.027Z,99.99
2022-10-07T03:12:16.033Z,99.99
2022-10-07T03:13:16.041Z,99.99
2022-10-07T03:14:16.007Z,99.99
2022-10-07T03:15:16.001Z,99.99
2022-10-07T03:16:16.069Z,99.99
2022-10-07T03:17:15.990Z,99.99
2022-10-07T03:18:16.003Z,99.99
2022-10-07T03:19:15.978Z,99.99
2022-10-07T03:20:15.965Z,99.99
2022-10-07T03:21:15.957Z,99.99
2022-10-07T03:22:15.945Z,99.99
2022-10-07T03:23:15.967Z,99.99
2022-10-07T03:24:15.937Z,99.99
2022-10-07T03:25:15.925Z,99.99
2022-10-07T03:26:15.917Z,99.99
2022-10-07T03:27:15.912Z,99.99
2022-10-07T03:28:15.972Z,99.99
2022-10-07T03:29:15.894Z,99.99
2022-10-07T03:30:15.884Z,99.99
2022-10-07T03:31:15.950Z,99.99
2022-10-07T03:32:15.874Z,99.99
2022-10-07T03:33:15.889Z,99.99
2022-10-07T03:34:15.872Z,99.99
2022-10-07T03:35:15.849Z,99.99
2022-10-07T03:36:15.840Z,99.99
2022-10-07T03:37:15.881Z,99.99
2022-10-07T03:38:15.853Z,99.99
2022-10-07T03:39:15.821Z,99.99
2022-10-07T03:40:15.811Z,99.99
2022-10-07T03:41:15.800Z,99.99
2022-10-07T03:42:15.796Z,99.99
2022-10-07T03:43:15.819Z,99.99
2022-10-07T03:44:15.783Z,99.99
2022-10-07T03:45:15.775Z,99.99
2022-10-07T03:46:15.806Z,99.99
2022-10-07T03:47:15.762Z,99.99
2022-10-07T03:48:15.774Z,99.99
2022-10-07T03:49:15.739Z,99.99
2022-10-07T03:50:15.736Z,99.99
2022-10-07T03:51:15.729Z,99.99
2022-10-07T03:52:15.720Z,99.99
2022-10-07T03:53:15.749Z,99.99
2022-10-07T03:54:15.704Z,99.99
2022-10-07T03:55:15.707Z,99.99
2022-10-07T03:56:15.692Z,99.99
2022-10-07T03:57:15.687Z,99.99
2022-10-07T03:58:15.698Z,99.99
2022-10-07T03:59:15.667Z,99.99
2022-10-07T04:00:15.661Z,99.99
2022-10-07T04:01:48.108Z,99.99
2022-10-07T04:02:15.650Z,99.99
2022-10-07T04:03:15.772Z,99.99
2022-10-07T04:04:15.640Z,99.99
2022-10-07T04:05:15.632Z,99.99
2022-10-07T04:06:15.624Z,99.99
2022-10-07T04:07:15.610Z,99.99
2022-10-07T04:08:15.634Z,99.99
2022-10-07T04:09:15.623Z,99.99
2022-10-07T04:10:15.621Z,99.99
2022-10-07T04:11:15.586Z,99.99
2022-10-07T04:12:15.623Z,99.99
2022-10-07T04:13:15.614Z,99.99
2022-10-07T04:14:15.554Z,99.99
2022-10-07T04:15:15.557Z,99.99
2022-10-07T04:16:15.578Z,99.99
2022-10-07T04:17:15.546Z,99.99
2022-10-07T04:18:15.584Z,99.99
2022-10-07T04:19:15.529Z,99.99
2022-10-07T04:20:15.521Z,99.99
2022-10-07T04:21:15.508Z,99.99
2022-10-07T04:22:15.505Z,99.99
2022-10-07T04:23:15.516Z,99.99
2022-10-07T04:24:15.478Z,99.99
2022-10-07T04:25:15.476Z,99.99
2022-10-07T04:26:15.485Z,99.99
2022-10-07T04:27:33.944Z,99.99
2022-10-07T04:28:17.569Z,99.99
2022-10-07T04:29:15.459Z,99.99
2022-10-07T04:30:15.449Z,99.99
2022-10-07T04:31:15.531Z,99.99
2022-10-07T04:32:15.438Z,99.99
2022-10-07T04:33:15.452Z,99.99
2022-10-07T04:34:15.417Z,99.99
2022-10-07T04:35:15.403Z,99.99
2022-10-07T04:36:15.399Z,99.99
2022-10-07T04:37:15.389Z,99.99
2022-10-07T04:38:15.406Z,99.99
2022-10-07T04:39:15.375Z,99.99
2022-10-07T04:40:15.363Z,99.99
2022-10-07T04:41:15.357Z,99.99
2022-10-07T04:42:15.350Z,99.99
2022-10-07T04:43:15.375Z,99.99
2022-10-07T04:44:15.335Z,99.99
2022-10-07T04:45:15.321Z,99.99
2022-10-07T04:46:15.394Z,99.99
2022-10-07T04:47:15.370Z,99.99
2022-10-07T04:48:15.339Z,99.99
2022-10-07T04:49:15.294Z,99.99
2022-10-07T04:50:15.286Z,99.99
2022-10-07T04:51:15.274Z,99.99
2022-10-07T04:52:15.275Z,99.99
2022-10-07T04:53:15.269Z,99.99
2022-10-07T04:54:15.284Z,99.99
2022-10-07T04:55:15.250Z,99.99
2022-10-07T04:56:15.239Z,99.99
2022-10-07T04:57:15.238Z,99.99
2022-10-07T04:58:15.227Z,99.99
2022-10-07T04:59:15.245Z,99.99
2022-10-07T05:00:15.209Z,99.99
2022-10-07T05:01:15.262Z,99.99
2022-10-07T05:02:15.252Z,99.99
2022-10-07T05:03:15.185Z,99.99
2022-10-07T05:04:15.203Z,99.99
2022-10-07T05:05:15.175Z,99.99
2022-10-07T05:06:15.171Z,99.99
2022-10-07T05:07:15.155Z,99.99
2022-10-07T05:08:15.175Z,99.99
2022-10-07T05:09:15.142Z,99.99
2022-10-07T05:10:15.132Z,99.99
2022-10-07T05:11:15.124Z,99.99
2022-10-07T05:12:15.111Z,99.99
2022-10-07T05:13:15.133Z,99.99
2022-10-07T05:14:15.103Z,99.99
2022-10-07T05:15:15.097Z,99.99
2022-10-07T05:16:15.146Z,99.99
2022-10-07T05:17:15.085Z,99.99
2022-10-07T05:18:15.105Z,99.99
2022-10-07T05:19:15.065Z,99.99
2022-10-07T05:20:15.059Z,99.99
2022-10-07T05:21:15.053Z,99.99
2022-10-07T05:22:15.106Z,99.99
2022-10-07T05:23:15.047Z,99.99
2022-10-07T05:24:15.059Z,99.99
2022-10-07T05:25:15.020Z,99.99
2022-10-07T05:26:15.008Z,99.99
2022-10-07T05:27:14.994Z,99.99
2022-10-07T05:28:15.079Z,99.99
2022-10-07T05:29:15.023Z,99.99
2022-10-07T05:30:14.983Z,99.99
2022-10-07T05:31:14.987Z,99.99
2022-10-07T05:32:14.974Z,99.99
2022-10-07T05:33:14.958Z,99.99
2022-10-07T05:34:15.015Z,99.99
2022-10-07T05:35:14.936Z,99.99
2022-10-07T05:36:14.935Z,99.99
2022-10-07T05:37:14.921Z,99.99
2022-10-07T05:38:14.917Z,99.99
2022-10-07T05:39:14.929Z,99.99
2022-10-07T05:40:14.929Z,99.99
2022-10-07T05:41:14.895Z,99.99
2022-10-07T05:42:14.887Z,99.99
2022-10-07T05:43:14.880Z,99.99
2022-10-07T05:44:14.887Z,99.99
2022-10-07T05:45:14.861Z,99.99
2022-10-07T05:46:14.922Z,99.99
2022-10-07T05:47:14.839Z,99.99
2022-10-07T05:48:14.838Z,99.99
2022-10-07T05:49:14.860Z,99.99
2022-10-07T05:50:14.824Z,99.99
2022-10-07T05:51:14.815Z,99.99
2022-10-07T05:52:14.802Z,99.99
2022-10-07T05:53:14.795Z,99.99
2022-10-07T05:54:14.806Z,99.99
2022-10-07T05:55:14.776Z,99.99
2022-10-07T05:56:14.767Z,99.99
2022-10-07T05:57:14.770Z,99.99
2022-10-07T05:58:14.752Z,99.99
2022-10-07T05:59:14.788Z,99.99
2022-10-07T06:00:14.747Z,99.99
2022-10-07T06:01:14.752Z,99.99
2022-10-07T06:02:14.910Z,99.99
2022-10-07T06:03:14.826Z,99.99
2022-10-07T06:04:14.760Z,99.99
2022-10-07T06:05:14.701Z,99.99
2022-10-07T06:06:14.696Z,99.99
2022-10-07T06:07:19.529Z,99.99
2022-10-07T06:08:16.673Z,99.99
2022-10-07T06:09:14.718Z,99.99
2022-10-07T06:10:14.667Z,99.99
2022-10-07T06:11:14.657Z,99.99
2022-10-07T06:12:14.673Z,99.99
2022-10-07T06:13:14.639Z,99.99
2022-10-07T06:14:14.666Z,99.99
2022-10-07T06:15:14.638Z,99.99
2022-10-07T06:16:14.715Z,99.99
2022-10-07T06:17:14.617Z,99.99
2022-10-07T06:18:14.605Z,99.99
2022-10-07T06:19:15.629Z,99.99
2022-10-07T06:20:14.600Z,99.99
2022-10-07T06:21:14.593Z,99.99
2022-10-07T06:22:14.596Z,99.99
2022-10-07T06:23:14.569Z,99.99
2022-10-07T06:24:14.561Z,99.99
2022-10-07T06:25:14.583Z,99.99
2022-10-07T06:26:14.565Z,99.99
2022-10-07T06:27:14.538Z,99.99
2022-10-07T06:28:14.557Z,99.99
2022-10-07T06:29:14.527Z,99.99
2022-10-07T06:30:14.546Z,99.99
2022-10-07T06:31:14.537Z,99.99
2022-10-07T06:32:14.503Z,99.99
2022-10-07T06:33:14.489Z,99.99
2022-10-07T06:34:14.494Z,99.99
2022-10-07T06:35:14.504Z,99.99
2022-10-07T06:36:14.471Z,99.99
2022-10-07T06:37:14.480Z,99.99
2022-10-07T06:38:14.458Z,99.99
2022-10-07T06:39:14.444Z,99.99
2022-10-07T06:40:14.467Z,99.99
2022-10-07T06:41:14.432Z,99.99
2022-10-07T06:42:14.425Z,99.99
2022-10-07T06:43:14.419Z,99.99
2022-10-07T06:44:14.450Z,99.99
2022-10-07T06:45:14.433Z,99.99
2022-10-07T06:46:14.439Z,99.99
2022-10-07T06:47:14.390Z,99.99
2022-10-07T06:48:14.382Z,99.99
2022-10-07T06:49:14.646Z,99.99
2022-10-07T06:50:14.395Z,99.99
2022-10-07T06:51:14.357Z,99.99
2022-10-07T06:52:14.352Z,99.99
2022-10-07T06:53:14.338Z,99.99
2022-10-07T06:54:14.332Z,99.99
2022-10-07T06:55:14.357Z,99.99
2022-10-07T06:56:14.331Z,99.99
2022-10-07T06:57:40.296Z,99.99
2022-10-07T06:58:16.305Z,99.99
2022-10-07T06:59:14.301Z,99.99
2022-10-07T07:00:14.321Z,99.99
2022-10-07T07:01:14.359Z,99.99
2022-10-07T07:02:14.306Z,99.99
2022-10-07T07:03:14.270Z,99.99
2022-10-07T07:04:14.260Z,99.99
2022-10-07T07:05:14.282Z,99.99
2022-10-07T07:06:14.255Z,99.58
2022-10-07T07:07:14.237Z,99.73
2022-10-07T07:08:14.241Z,99.79
2022-10-07T07:09:14.221Z,99.63
2022-10-07T07:10:14.251Z,99.58
2022-10-07T07:11:14.218Z,99.63
2022-10-07T07:12:14.200Z,99.99
2022-10-07T07:13:14.201Z,99.99
2022-10-07T07:14:14.195Z,99.73
2022-10-07T07:15:14.212Z,99.99
2022-10-07T07:16:14.228Z,99.99
2022-10-07T07:17:14.166Z,99.99
2022-10-07T07:18:14.159Z,99.99
2022-10-07T07:19:14.198Z,99.99
2022-10-07T07:20:14.181Z,99.99
2022-10-07T07:21:14.177Z,99.99
2022-10-07T07:22:14.135Z,99.94
2022-10-07T07:23:14.123Z,99.99
2022-10-07T07:24:14.114Z,99.79
2022-10-07T07:25:14.138Z,99.99
2022-10-07T07:26:14.123Z,99.99
2022-10-07T07:27:14.094Z,99.64
2022-10-07T07:28:14.100Z,99.74
2022-10-07T07:29:14.074Z,99.17
2022-10-07T07:30:14.073Z,98.71
2022-10-07T07:31:14.123Z,99.17
2022-10-07T07:32:14.054Z,99.90
2022-10-07T07:33:14.043Z,99.54
2022-10-07T07:34:14.031Z,99.54
2022-10-07T07:35:14.029Z,99.17
2022-10-07T07:36:14.047Z,99.48
2022-10-07T07:37:14.033Z,99.33
2022-10-07T07:38:14.006Z,99.13
2022-10-07T07:39:14.005Z,99.43
2022-10-07T07:40:13.988Z,99.13
2022-10-07T07:41:14.010Z,98.71
2022-10-07T07:42:13.978Z,98.77
2022-10-07T07:43:13.974Z,98.97
2022-10-07T07:44:13.959Z,98.15
2022-10-07T07:45:13.960Z,98.10
2022-10-07T07:46:13.994Z,98.10
2022-10-07T07:47:13.941Z,98.00
2022-10-07T07:48:13.951Z,98.41
2022-10-07T07:49:13.954Z,98.06
2022-10-07T07:50:13.927Z,97.13
2022-10-07T07:51:14.934Z,96.98
2022-10-07T07:52:13.917Z,97.13
2022-10-07T07:53:14.912Z,96.98
2022-10-07T07:54:13.915Z,97.19
2022-10-07T07:55:13.878Z,96.56
2022-10-07T07:56:13.894Z,96.47
2022-10-07T07:57:13.869Z,96.05
2022-10-07T07:58:13.855Z,95.74
2022-10-07T07:59:13.843Z,96.09
2022-10-07T08:00:13.842Z,96.30
2022-10-07T08:01:13.909Z,95.99
2022-10-07T08:02:13.854Z,96.82
2022-10-07T08:03:13.811Z,97.44
2022-10-07T08:04:13.821Z,97.50
2022-10-07T08:05:13.803Z,96.47
2022-10-07T08:06:13.832Z,96.36
2022-10-07T08:07:13.777Z,96.56
2022-10-07T08:08:13.774Z,96.42
2022-10-07T08:09:13.770Z,96.11
2022-10-07T08:10:13.757Z,96.11
2022-10-07T08:11:13.777Z,95.39
2022-10-07T08:12:13.742Z,95.59
2022-10-07T08:13:13.737Z,96.11
2022-10-07T08:14:13.724Z,96.58
2022-10-07T08:15:13.730Z,95.24
2022-10-07T08:16:13.783Z,94.72
2022-10-07T08:17:13.717Z,94.93
2022-10-07T08:18:13.697Z,94.82
2022-10-07T08:19:13.690Z,94.82
2022-10-07T08:20:13.791Z,94.93
2022-10-07T08:21:13.709Z,95.03
2022-10-07T08:22:13.689Z,95.24
2022-10-07T08:23:13.656Z,94.93
2022-10-07T08:24:13.645Z,94.62
2022-10-07T08:25:13.638Z,95.76
2022-10-07T08:26:13.637Z,95.76
2022-10-07T08:27:13.649Z,95.14
2022-10-07T08:28:13.668Z,95.34
2022-10-07T08:29:13.617Z,95.30
2022-10-07T08:30:13.599Z,94.89
2022-10-07T08:31:13.623Z,94.78
2022-10-07T08:32:13.611Z,95.25
2022-10-07T08:33:13.580Z,94.80
2022-10-07T08:34:13.578Z,94.76
2022-10-07T08:35:13.560Z,94.13
2022-10-07T08:36:13.556Z,93.62
2022-10-07T08:37:13.588Z,92.80
2022-10-07T08:38:14.584Z,93.62
2022-10-07T08:39:14.554Z,92.96
2022-10-07T08:40:13.534Z,93.12
2022-10-07T08:41:13.508Z,92.61
2022-10-07T08:42:13.625Z,91.74
2022-10-07T08:43:13.514Z,92.77
2022-10-07T08:44:16.778Z,91.64
2022-10-07T08:45:14.480Z,91.44
2022-10-07T08:46:13.534Z,91.29
2022-10-07T08:47:13.511Z,91.29
2022-10-07T08:48:13.466Z,91.19
2022-10-07T08:49:13.463Z,91.45
2022-10-07T08:50:18.306Z,90.01
2022-10-07T08:51:15.444Z,89.87
2022-10-07T08:52:13.465Z,89.52
2022-10-07T08:53:13.432Z,88.90
2022-10-07T08:54:13.430Z,88.45
2022-10-07T08:55:13.414Z,88.66
2022-10-07T08:56:13.405Z,88.24
2022-10-07T08:57:13.412Z,88.72
2022-10-07T08:58:14.393Z,88.62
2022-10-07T08:59:13.392Z,88.78
2022-10-07T09:00:13.379Z,87.76
2022-10-07T09:01:13.395Z,88.06
2022-10-07T09:02:13.412Z,87.76
2022-10-07T09:03:13.346Z,88.68
2022-10-07T09:04:13.347Z,88.02
2022-10-07T09:05:13.336Z,87.51
2022-10-07T09:06:13.323Z,87.30
2022-10-07T09:07:13.346Z,86.79
2022-10-07T09:08:13.317Z,87.06
2022-10-07T09:09:13.311Z,86.81
2022-10-07T09:10:13.305Z,88.29
2022-10-07T09:11:13.294Z,88.53
2022-10-07T09:12:13.305Z,88.43
2022-10-07T09:13:13.276Z,88.84
2022-10-07T09:14:13.272Z,88.33
2022-10-07T09:15:13.253Z,87.71
2022-10-07T09:16:13.364Z,88.43
2022-10-07T09:17:13.268Z,88.49
2022-10-07T09:18:13.234Z,88.27
2022-10-07T09:19:13.227Z,88.84
2022-10-07T09:20:13.215Z,89.87
2022-10-07T09:21:13.333Z,88.90
2022-10-07T09:22:13.223Z,88.31
2022-10-07T09:23:13.194Z,87.38
2022-10-07T09:24:13.180Z,86.08
2022-10-07T09:25:14.187Z,87.00
2022-10-07T09:26:13.169Z,84.95
2022-10-07T09:27:13.190Z,83.42
2022-10-07T09:28:13.193Z,84.14
2022-10-07T09:29:13.148Z,85.06
2022-10-07T09:30:13.136Z,86.29
2022-10-07T09:31:13.169Z,86.14
2022-10-07T09:32:13.158Z,85.83
2022-10-07T09:33:13.120Z,84.44
2022-10-07T09:34:13.123Z,85.06
2022-10-07T09:35:13.113Z,85.57
2022-10-07T09:36:13.093Z,85.73
2022-10-07T09:37:13.102Z,86.00
2022-10-07T09:38:13.108Z,86.61
2022-10-07T09:39:13.069Z,85.04
2022-10-07T09:40:13.060Z,84.63
2022-10-07T09:41:13.057Z,83.84
2022-10-07T09:42:13.040Z,84.25
2022-10-07T09:43:13.060Z,82.88
2022-10-07T09:44:13.026Z,83.70
2022-10-07T09:45:13.059Z,82.98
2022-10-07T09:46:13.042Z,84.45
2022-10-07T09:47:12.998Z,83.59
2022-10-07T09:48:13.025Z,83.09
2022-10-07T09:49:12.991Z,83.04
2022-10-07T09:50:12.982Z,81.72
2022-10-07T09:51:12.965Z,81.58
2022-10-07T09:52:12.968Z,80.97
2022-10-07T09:53:12.981Z,81.54
2022-10-07T09:54:12.958Z,80.87
2022-10-07T09:55:12.945Z,81.48
2022-10-07T09:56:12.929Z,81.04
2022-10-07T09:57:18.191Z,77.13
2022-10-07T09:58:14.942Z,76.07
2022-10-07T09:59:12.900Z,75.16
2022-10-07T10:00:12.909Z,75.67
2022-10-07T10:01:12.893Z,76.25
2022-10-07T10:02:44.943Z,76.34
2022-10-07T10:03:12.919Z,77.87
2022-10-07T10:04:12.862Z,77.43
2022-10-07T10:05:12.855Z,75.80
2022-10-07T10:06:12.852Z,74.38
2022-10-07T10:07:12.836Z,75.46
2022-10-07T10:08:12.855Z,76.28
2022-10-07T10:09:15.773Z,76.58
2022-10-07T10:10:13.841Z,75.52
2022-10-07T10:11:12.823Z,73.50
2022-10-07T10:12:12.804Z,73.70
2022-10-07T10:13:12.826Z,72.14
2022-10-07T10:14:12.791Z,73.02
2022-10-07T10:15:12.781Z,71.91
2022-10-07T10:16:12.815Z,70.65
2022-10-07T10:17:12.764Z,70.96
2022-10-07T10:18:12.791Z,69.74
2022-10-07T10:19:12.745Z,70.76
2022-10-07T10:20:12.748Z,70.25
2022-10-07T10:21:12.732Z,70.15
2022-10-07T10:22:12.730Z,69.54
2022-10-07T10:23:12.746Z,69.41
2022-10-07T10:24:12.710Z,69.10
2022-10-07T10:25:12.706Z,68.90
2022-10-07T10:26:12.722Z,68.49
2022-10-07T10:27:12.685Z,68.19
2022-10-07T10:28:12.700Z,68.26
2022-10-07T10:29:12.673Z,68.36
2022-10-07T10:30:12.667Z,68.36
2022-10-07T10:31:12.729Z,68.46
2022-10-07T10:32:12.648Z,67.85
2022-10-07T10:33:12.638Z,68.46
2022-10-07T10:34:12.638Z,68.16
2022-10-07T10:35:12.634Z,67.42
2022-10-07T10:36:12.645Z,67.82
2022-10-07T10:37:14.649Z,67.82
2022-10-07T10:38:13.598Z,67.72
2022-10-07T10:39:12.592Z,68.02
2022-10-07T10:40:12.587Z,67.93
2022-10-07T10:41:12.600Z,67.72
2022-10-07T10:42:12.570Z,67.79
2022-10-07T10:43:12.559Z,67.35
2022-10-07T10:44:12.553Z,67.93
2022-10-07T10:45:12.610Z,67.63
2022-10-07T10:46:12.609Z,66.82
2022-10-07T10:47:12.535Z,66.72
2022-10-07T10:48:12.527Z,66.61
2022-10-07T10:49:12.514Z,66.44
2022-10-07T10:50:12.512Z,66.21
2022-10-07T10:51:12.525Z,66.21
2022-10-07T10:52:13.568Z,66.11
2022-10-07T10:53:13.486Z,65.50
2022-10-07T10:54:12.488Z,66.61
2022-10-07T10:55:12.488Z,66.78
2022-10-07T10:56:12.490Z,65.88
2022-10-07T10:57:12.454Z,65.78
2022-10-07T10:58:12.441Z,66.05
2022-10-07T10:59:12.441Z,66.15
2022-10-07T11:00:12.424Z,65.75
2022-10-07T11:01:12.438Z,64.94
2022-10-07T11:02:12.447Z,65.21
2022-10-07T11:03:12.449Z,65.61
2022-10-07T11:04:12.391Z,65.41
2022-10-07T11:05:12.384Z,66.25
2022-10-07T11:06:12.407Z,66.96
2022-10-07T11:07:12.371Z,65.84
2022-10-07T11:08:12.366Z,66.02
2022-10-07T11:09:12.351Z,66.08
2022-10-07T11:10:12.344Z,63.67
2022-10-07T11:11:12.361Z,63.96
2022-10-07T11:12:12.335Z,63.76
2022-10-07T11:13:12.319Z,64.87
2022-10-07T11:14:12.316Z,63.16
2022-10-07T11:15:12.311Z,63.64
2022-10-07T11:16:12.367Z,63.43
2022-10-07T11:17:12.292Z,63.53
2022-10-07T11:18:12.280Z,63.56
2022-10-07T11:19:12.271Z,63.33
2022-10-07T11:20:12.261Z,63.53
2022-10-07T11:21:12.289Z,63.60
2022-10-07T11:22:12.248Z,63.40
2022-10-07T11:23:12.247Z,63.70
2022-10-07T11:24:12.237Z,63.00
2022-10-07T11:25:12.262Z,63.33
2022-10-07T11:26:12.222Z,62.63
2022-10-07T11:27:12.210Z,63.73
2022-10-07T11:28:12.249Z,63.73
2022-10-07T11:29:12.198Z,63.30
2022-10-07T11:30:12.214Z,62.87
2022-10-07T11:31:12.211Z,63.57
2022-10-07T11:32:12.174Z,63.14
2022-10-07T11:33:12.281Z,63.57
2022-10-07T11:34:12.189Z,63.67
2022-10-07T11:35:12.182Z,63.47
2022-10-07T11:36:12.144Z,63.45
2022-10-07T11:37:12.144Z,63.24
2022-10-07T11:38:12.126Z,62.34
2022-10-07T11:39:12.128Z,62.44
2022-10-07T11:40:12.163Z,62.24
2022-10-07T11:41:12.101Z,62.74
2022-10-07T11:42:12.102Z,63.04
2022-10-07T11:43:12.093Z,63.37
2022-10-07T11:44:12.079Z,63.17
2022-10-07T11:45:12.099Z,62.13
2022-10-07T11:46:12.166Z,61.43
2022-10-07T11:47:12.060Z,61.53
2022-10-07T11:48:12.044Z,60.89
2022-10-07T11:49:12.050Z,61.63
2022-10-07T11:50:12.056Z,62.24
2022-10-07T11:51:12.028Z,61.40
2022-10-07T11:52:12.017Z,61.70
2022-10-07T11:53:12.011Z,61.30
2022-10-07T11:54:11.996Z,61.57
2022-10-07T11:55:12.020Z,61.57
2022-10-07T11:56:11.994Z,61.10
2022-10-07T11:57:11.977Z,61.77
2022-10-07T11:58:11.973Z,62.30
2022-10-07T11:59:11.975Z,63.17
2022-10-07T12:00:11.987Z,63.57
2022-10-07T12:01:11.949Z,63.65
2022-10-07T12:02:15.687Z,63.21
2022-10-07T12:03:13.033Z,62.51
2022-10-07T12:04:11.930Z,62.30
2022-10-07T12:05:11.952Z,62.68
2022-10-07T12:06:11.916Z,62.07
2022-10-07T12:07:11.902Z,62.48
2022-10-07T12:08:11.898Z,61.67
2022-10-07T12:09:11.892Z,61.67
2022-10-07T12:10:11.927Z,61.77
2022-10-07T12:11:11.876Z,61.37
2022-10-07T12:12:11.869Z,62.07
2022-10-07T12:13:11.856Z,62.24
2022-10-07T12:14:11.846Z,62.05
2022-10-07T12:15:11.869Z,62.18
2022-10-07T12:16:11.921Z,62.05
2022-10-07T12:17:11.822Z,62.45
2022-10-07T12:18:11.815Z,62.05
2022-10-07T12:19:11.807Z,61.27
2022-10-07T12:20:11.834Z,61.98
2022-10-07T12:21:11.799Z,62.58
2022-10-07T12:22:11.791Z,61.54
2022-10-07T12:23:11.777Z,61.24
2022-10-07T12:24:11.784Z,61.27
2022-10-07T12:25:11.801Z,62.07
2022-10-07T12:26:11.805Z,62.45
2022-10-07T12:27:11.745Z,61.94
2022-10-07T12:28:11.784Z,61.14
2022-10-07T12:29:11.733Z,61.98
2022-10-07T12:30:11.722Z,63.28
2022-10-07T12:31:11.775Z,62.85
2022-10-07T12:32:11.713Z,63.15
2022-10-07T12:33:11.701Z,62.24
2022-10-07T12:34:11.725Z,62.05
2022-10-07T12:35:11.685Z,62.98
2022-10-07T12:36:11.716Z,63.79
2022-10-07T12:37:11.672Z,63.56
2022-10-07T12:38:11.681Z,63.35
2022-10-07T12:39:11.668Z,62.05
2022-10-07T12:40:11.659Z,61.04
2022-10-07T12:41:11.709Z,62.15
2022-10-07T12:42:11.636Z,62.15
2022-10-07T12:43:11.621Z,62.45
2022-10-07T12:44:11.621Z,62.45
2022-10-07T12:45:11.613Z,62.15
2022-10-07T12:46:11.696Z,62.12
2022-10-07T12:47:16.255Z,62.22
2022-10-07T12:48:13.592Z,62.05
2022-10-07T12:49:11.587Z,62.15
2022-10-07T12:50:11.572Z,63.05
2022-10-07T12:51:11.600Z,62.55
2022-10-07T12:52:11.564Z,62.45